Time;durP1;ratioP1;P1;durP2;ratioP2;P2;SDS_P1;SDS_P2;PMS_P1;PMS_P2;Temp;Humidity;BMP_temperature;BMP_pressure;BME280_temperature;BME280_humidity;BME280_pressure;Samples;Min_cycle;Max_cycle;Signal;HPM_P1;HPM_P2
2021/04/24 00:00:47;;;;;;;10.50;5.35;;;6.00;54.40;;;;;;5060569;28;20044;-64
2021/04/24 00:03:13;;;;;;;10.57;5.68;;;6.00;54.60;;;;;;5057774;28;20062;-64
2021/04/24 00:05:43;;;;;;;12.00;5.68;;;6.00;54.50;;;;;;5058838;28;20529;-66
2021/04/24 00:08:13;;;;;;;14.48;5.65;;;5.90;54.70;;;;;;5076840;28;20475;-65
2021/04/24 00:10:45;;;;;;;16.70;5.80;;;5.80;55.00;;;;;;5056321;28;20087;-65
2021/04/24 00:13:12;;;;;;;10.27;5.38;;;5.80;54.90;;;;;;5064795;28;20028;-64
2021/04/24 00:15:43;;;;;;;13.75;5.63;;;5.70;54.80;;;;;;5060531;28;20051;-65
2021/04/24 00:18:13;;;;;;;12.48;5.95;;;5.70;55.20;;;;;;5059510;28;20559;-66
2021/04/24 00:20:41;;;;;;;18.58;6.93;;;5.70;55.10;;;;;;5062535;28;20029;-62
2021/04/24 00:23:13;;;;;;;11.50;5.75;;;5.60;55.50;;;;;;5062241;28;20040;-61
2021/04/24 00:25:41;;;;;;;13.90;5.60;;;5.50;55.50;;;;;;5059153;28;20052;-62
2021/04/24 00:28:14;;;;;;;15.23;6.85;;;5.50;55.50;;;;;;5061718;28;20571;-63
2021/04/24 00:30:46;;;;;;;13.13;6.22;;;5.40;55.60;;;;;;5060584;28;20041;-63
2021/04/24 00:33:12;;;;;;;14.25;7.00;;;5.40;55.70;;;;;;5066070;28;20033;-62
2021/04/24 00:35:38;;;;;;;15.38;7.10;;;5.40;55.60;;;;;;5060069;28;20048;-62
2021/04/24 00:38:08;;;;;;;13.52;7.30;;;5.30;55.60;;;;;;5060108;28;20041;-62
2021/04/24 00:40:39;;;;;;;15.93;7.43;;;5.20;56.00;;;;;;5056939;28;20448;-62
2021/04/24 00:43:07;;;;;;;18.33;7.55;;;5.20;55.80;;;;;;5062220;28;20045;-62
2021/04/24 00:45:37;;;;;;;19.92;7.45;;;5.20;55.80;;;;;;5059381;28;20040;-62
2021/04/24 00:48:03;;;;;;;15.88;7.30;;;5.20;56.10;;;;;;5059016;28;20420;-62
2021/04/24 00:50:34;;;;;;;17.25;7.25;;;5.10;56.00;;;;;;5056989;28;20047;-62
2021/04/24 00:53:05;;;;;;;16.83;6.40;;;5.10;56.20;;;;;;5060537;28;20616;-63
2021/04/24 00:55:36;;;;;;;14.95;6.93;;;5.10;56.00;;;;;;5064398;28;20036;-63
2021/04/24 00:58:07;;;;;;;20.58;9.18;;;5.10;56.40;;;;;;5060424;28;20037;-62
2021/04/24 01:00:38;;;;;;;22.27;8.75;;;5.10;56.50;;;;;;5054255;28;20028;-63
2021/04/24 01:03:06;;;;;;;26.27;9.82;;;5.10;56.40;;;;;;5071167;28;20068;-64
2021/04/24 01:05:37;;;;;;;20.83;9.18;;;5.10;56.10;;;;;;5060205;28;20032;-62
2021/04/24 01:08:07;;;;;;;21.27;9.40;;;5.10;56.20;;;;;;5060776;28;20032;-62
2021/04/24 01:10:35;;;;;;;22.15;8.65;;;5.10;56.20;;;;;;5057891;28;20413;-63
2021/04/24 01:13:06;;;;;;;17.70;8.25;;;5.00;56.00;;;;;;5062302;28;20032;-62
2021/04/24 01:15:36;;;;;;;20.02;7.88;;;5.00;56.20;;;;;;5059852;28;20060;-63
2021/04/24 01:18:08;;;;;;;20.23;7.68;;;5.00;56.20;;;;;;5058438;28;20129;-62
2021/04/24 01:20:40;;;;;;;21.27;8.35;;;5.00;56.50;;;;;;5059374;28;20053;-62
2021/04/24 01:23:09;;;;;;;15.38;7.30;;;5.00;56.50;;;;;;5062202;28;20041;-63
2021/04/24 01:25:40;;;;;;;17.10;6.82;;;4.90;56.40;;;;;;5064203;28;20103;-64
2021/04/24 01:28:07;;;;;;;12.85;6.55;;;4.90;56.40;;;;;;5062074;28;20465;-64
2021/04/24 01:30:38;;;;;;;15.68;7.13;;;4.80;56.30;;;;;;5061383;28;20068;-65
2021/04/24 01:33:11;;;;;;;15.48;6.97;;;4.80;56.60;;;;;;5054411;28;20082;-64
2021/04/24 01:35:43;;;;;;;13.48;7.13;;;4.80;56.90;;;;;;5062091;28;20033;-65
2021/04/24 01:38:09;;;;;;;16.55;6.57;;;4.70;56.70;;;;;;5056197;28;20040;-65
2021/04/24 01:40:38;;;;;;;12.07;6.88;;;4.60;57.30;;;;;;5060009;28;20029;-64
2021/04/24 01:43:08;;;;;;;11.95;6.32;;;4.60;56.80;;;;;;5063466;28;20585;-64
2021/04/24 01:45:36;;;;;;;12.13;6.32;;;4.60;57.10;;;;;;5060910;28;20040;-65
2021/04/24 01:48:08;;;;;;;13.85;6.65;;;4.50;57.30;;;;;;5060775;28;20493;-65
2021/04/24 01:50:41;;;;;;;13.52;6.20;;;4.40;57.40;;;;;;5064656;28;20037;-64
2021/04/24 01:53:12;;;;;;;13.40;6.00;;;4.30;57.60;;;;;;5066331;28;20646;-64
2021/04/24 01:55:42;;;;;;;13.20;6.10;;;4.30;57.50;;;;;;5065735;28;20036;-65
2021/04/24 01:58:10;;;;;;;17.17;6.30;;;4.30;57.70;;;;;;5067035;28;20064;-65
2021/04/24 02:00:51;;;;;;;16.73;6.25;;;4.20;57.60;;;;;;5080815;28;20036;-64
2021/04/24 02:03:17;;;;;;;12.77;6.10;;;4.20;58.00;;;;;;5064893;28;20052;-64
2021/04/24 02:05:46;;;;;;;12.85;5.93;;;4.20;57.60;;;;;;5063786;28;20033;-65
2021/04/24 02:08:30;;;;;;;17.17;6.72;;;4.20;57.90;;;;;;5057884;28;20044;-65
2021/04/24 02:10:58;;;;;;;10.68;5.88;;;4.10;57.90;;;;;;5059226;28;20102;-65
2021/04/24 02:13:29;;;;;;;10.45;5.57;;;4.20;57.60;;;;;;5068864;28;20039;-65
2021/04/24 02:15:58;;;;;;;11.63;5.90;;;4.20;57.90;;;;;;5062833;28;20302;-65
2021/04/24 02:18:29;;;;;;;13.40;6.43;;;4.20;57.60;;;;;;5063976;28;20086;-64
2021/04/24 02:20:57;;;;;;;12.90;5.82;;;4.20;57.70;;;;;;5066454;28;20033;-65
2021/04/24 02:23:33;;;;;;;12.27;5.97;;;4.20;57.60;;;;;;5064332;28;20048;-64
2021/04/24 02:26:03;;;;;;;14.30;7.03;;;4.20;57.70;;;;;;5068675;28;20710;-64
2021/04/24 02:28:29;;;;;;;12.93;6.30;;;4.20;57.50;;;;;;5065626;28;20033;-64
2021/04/24 02:31:00;;;;;;;13.02;6.57;;;4.20;57.60;;;;;;5063451;28;20062;-65
2021/04/24 02:33:28;;;;;;;11.32;5.82;;;4.20;58.20;;;;;;5063982;28;20063;-63
2021/04/24 02:35:59;;;;;;;10.77;5.95;;;4.10;58.30;;;;;;5063488;28;20137;-65
2021/04/24 02:38:30;;;;;;;16.27;6.70;;;4.10;58.70;;;;;;5064716;28;20032;-64
2021/04/24 02:41:00;;;;;;;13.95;7.53;;;4.00;58.80;;;;;;5061435;28;20607;-64
2021/04/24 02:43:31;;;;;;;12.77;7.00;;;4.00;58.80;;;;;;5064364;28;20040;-64
2021/04/24 02:45:59;;;;;;;12.48;7.05;;;4.00;59.10;;;;;;5061906;28;20488;-64
2021/04/24 02:48:32;;;;;;;15.48;7.25;;;3.90;58.90;;;;;;5061129;28;20032;-64
2021/04/24 02:50:59;;;;;;;13.43;7.22;;;3.90;59.10;;;;;;5063747;28;20037;-62
2021/04/24 02:53:33;;;;;;;16.98;7.00;;;3.90;58.70;;;;;;5064397;28;20029;-65
2021/04/24 02:55:59;;;;;;;14.45;6.95;;;3.90;59.10;;;;;;5064782;28;20079;-64
2021/04/24 02:58:25;;;;;;;17.30;7.28;;;3.80;58.90;;;;;;5061132;28;20043;-64
2021/04/24 03:00:52;;;;;;;14.65;7.15;;;3.80;59.00;;;;;;5062685;28;20032;-64
2021/04/24 03:03:21;;;;;;;13.85;7.05;;;3.80;59.20;;;;;;5059214;28;20513;-64
2021/04/24 03:05:49;;;;;;;13.65;6.78;;;3.80;59.50;;;;;;5058792;28;20041;-64
2021/04/24 03:08:16;;;;;;;14.20;7.28;;;3.70;59.50;;;;;;5060260;28;20047;-64
2021/04/24 03:10:44;;;;;;;12.65;6.82;;;3.70;59.60;;;;;;5072082;28;20045;-64
2021/04/24 03:13:13;;;;;;;15.30;7.50;;;3.70;60.00;;;;;;5061998;28;20677;-64
2021/04/24 03:15:38;;;;;;;15.40;7.65;;;3.70;60.00;;;;;;5056253;28;20585;-64
2021/04/24 03:18:09;;;;;;;18.02;7.65;;;3.70;59.90;;;;;;5062590;28;20064;-64
2021/04/24 03:20:37;;;;;;;14.63;7.40;;;3.70;60.20;;;;;;5066139;28;20501;-64
2021/04/24 03:23:09;;;;;;;14.13;6.95;;;3.70;59.90;;;;;;5061273;28;21057;-63
2021/04/24 03:25:40;;;;;;;12.45;6.70;;;3.60;60.20;;;;;;5060735;28;22348;-64
2021/04/24 03:28:10;;;;;;;15.35;7.20;;;3.60;60.30;;;;;;5066444;28;20040;-64
2021/04/24 03:30:38;;;;;;;12.30;6.95;;;3.60;60.00;;;;;;5058444;28;20024;-65
2021/04/24 03:33:08;;;;;;;12.77;6.75;;;3.60;60.00;;;;;;5054910;28;20036;-64
2021/04/24 03:35:39;;;;;;;15.52;7.72;;;3.60;60.00;;;;;;5061586;28;20037;-65
2021/04/24 03:38:10;;;;;;;14.07;6.75;;;3.60;60.00;;;;;;5062060;28;22393;-64
2021/04/24 03:40:40;;;;;;;14.52;6.82;;;3.60;59.80;;;;;;5062237;28;20070;-64
2021/04/24 03:43:13;;;;;;;13.22;7.06;;;3.60;59.70;;;;;;4968576;28;3720109;-70
2021/04/24 03:45:41;;;;;;;13.02;6.47;;;3.70;59.60;;;;;;5060007;28;20108;-64
2021/04/24 03:48:07;;;;;;;12.35;6.47;;;3.70;59.50;;;;;;5056325;28;20525;-65
2021/04/24 03:50:35;;;;;;;18.40;7.35;;;3.70;59.40;;;;;;5059030;28;20050;-63
2021/04/24 03:53:03;;;;;;;12.15;6.72;;;3.70;59.30;;;;;;5065009;28;20028;-64
2021/04/24 03:55:29;;;;;;;13.98;6.88;;;3.80;59.30;;;;;;5067714;28;20033;-65
2021/04/24 03:57:59;;;;;;;12.98;7.32;;;3.80;59.20;;;;;;5067603;28;20436;-62
2021/04/24 04:00:28;;;;;;;14.38;7.47;;;3.80;59.00;;;;;;5064081;28;20491;-64
2021/04/24 04:03:05;;;;;;;15.88;7.28;;;3.80;59.00;;;;;;5064831;28;20029;-64
2021/04/24 04:05:38;;;;;;;12.02;6.88;;;3.80;59.40;;;;;;5060581;28;20033;-64
2021/04/24 04:08:09;;;;;;;12.45;6.70;;;3.80;59.00;;;;;;5064361;28;20769;-65
2021/04/24 04:10:40;;;;;;;12.82;6.70;;;3.80;59.00;;;;;;5057969;28;20107;-64
2021/04/24 04:13:07;;;;;;;13.02;7.03;;;3.80;59.10;;;;;;5061425;28;20032;-64
2021/04/24 04:15:39;;;;;;;8.60;5.80;;;3.80;59.10;;;;;;5066392;28;20043;-64
2021/04/24 04:18:10;;;;;;;14.18;6.10;;;3.70;59.00;;;;;;5063312;28;20122;-64
2021/04/24 04:20:52;;;;;;;11.98;6.40;;;3.70;59.20;;;;;;5057993;28;20074;-63
2021/04/24 04:23:18;;;;;;;11.05;6.18;;;3.70;59.30;;;;;;5062343;28;20036;-64
2021/04/24 04:25:44;;;;;;;16.80;6.68;;;3.60;59.20;;;;;;5064043;28;20051;-65
2021/04/24 04:28:13;;;;;;;15.57;6.68;;;3.60;59.40;;;;;;5058594;28;20077;-63
2021/04/24 04:30:44;;;;;;;14.13;7.00;;;3.60;59.50;;;;;;5063421;28;20051;-63
2021/04/24 04:33:15;;;;;;;12.75;7.22;;;3.50;59.30;;;;;;5062953;28;20588;-64
2021/04/24 04:35:46;;;;;;;14.68;7.13;;;3.50;59.40;;;;;;5058444;28;20409;-65
2021/04/24 04:38:14;;;;;;;17.30;7.00;;;3.50;59.50;;;;;;5055965;28;20048;-62
2021/04/24 04:40:43;;;;;;;16.40;6.95;;;3.40;59.70;;;;;;5055571;28;20059;-64
2021/04/24 04:43:15;;;;;;;13.00;7.00;;;3.40;59.70;;;;;;5062463;28;20044;-64
2021/04/24 04:45:43;;;;;;;16.73;7.20;;;3.40;59.80;;;;;;5055129;28;20036;-64
2021/04/24 04:48:13;;;;;;;15.70;7.20;;;3.40;59.80;;;;;;5054496;28;20116;-64
2021/04/24 04:50:44;;;;;;;15.90;7.43;;;3.30;59.90;;;;;;5054361;28;20041;-64
2021/04/24 04:53:12;;;;;;;12.05;7.57;;;3.30;59.90;;;;;;5052838;28;20040;-65
2021/04/24 04:55:40;;;;;;;14.68;7.95;;;3.30;60.20;;;;;;5060836;28;20041;-64
2021/04/24 04:58:10;;;;;;;16.58;7.45;;;3.30;60.10;;;;;;5063153;28;20056;-65
2021/04/24 05:00:38;;;;;;;14.32;6.78;;;3.30;60.40;;;;;;5057682;28;20028;-63
2021/04/24 05:03:06;;;;;;;14.25;7.47;;;3.20;60.40;;;;;;5055595;28;20040;-64
2021/04/24 05:05:34;;;;;;;13.68;7.68;;;3.20;60.20;;;;;;5063989;28;20033;-65
2021/04/24 05:08:02;;;;;;;18.58;8.10;;;3.20;60.30;;;;;;5059722;28;20028;-62
2021/04/24 05:10:32;;;;;;;14.32;7.45;;;3.20;60.60;;;;;;5052494;28;20033;-64
2021/04/24 05:13:00;;;;;;;15.13;7.63;;;3.20;61.00;;;;;;5051563;28;20037;-64
2021/04/24 05:15:28;;;;;;;13.48;7.35;;;3.20;60.90;;;;;;5061043;28;20044;-65
2021/04/24 05:17:54;;;;;;;13.68;7.72;;;3.30;61.30;;;;;;5063787;28;20044;-64
2021/04/24 05:20:22;;;;;;;16.40;7.72;;;3.30;61.30;;;;;;5055913;28;20032;-62
2021/04/24 05:22:52;;;;;;;17.08;7.88;;;3.30;61.60;;;;;;5062090;28;20036;-65
2021/04/24 05:25:20;;;;;;;11.35;6.93;;;3.40;62.00;;;;;;5062503;28;20037;-64
2021/04/24 05:27:48;;;;;;;17.98;8.48;;;3.40;61.70;;;;;;5059586;28;20409;-64
2021/04/24 05:30:22;;;;;;;16.00;8.30;;;3.40;61.80;;;;;;5060887;28;20822;-64
2021/04/24 05:32:50;;;;;;;16.48;7.85;;;3.50;62.10;;;;;;5062832;28;20029;-65
2021/04/24 05:35:16;;;;;;;19.52;7.50;;;3.50;61.80;;;;;;5075415;28;20475;-64
2021/04/24 05:37:47;;;;;;;14.65;7.38;;;3.60;62.00;;;;;;5057228;28;20433;-62
2021/04/24 05:40:15;;;;;;;15.20;7.50;;;3.70;62.40;;;;;;5056945;28;22338;-63
2021/04/24 05:42:41;;;;;;;15.98;8.40;;;3.70;62.30;;;;;;5047057;28;20052;-63
2021/04/24 05:45:12;;;;;;;15.90;8.05;;;3.80;62.30;;;;;;5058100;28;20041;-63
2021/04/24 05:47:48;;;;;;;26.48;8.43;;;3.90;63.30;;;;;;5049061;28;21830;-64
2021/04/24 05:50:20;;;;;;;19.88;8.07;;;4.00;62.60;;;;;;5050575;28;20037;-64
2021/04/24 05:52:53;;;;;;;14.60;8.20;;;4.10;62.50;;;;;;5058238;28;20530;-64
2021/04/24 05:55:21;;;;;;;17.52;7.70;;;4.20;62.40;;;;;;5047497;28;20037;-64
2021/04/24 05:57:47;;;;;;;16.05;7.63;;;4.30;62.00;;;;;;5049502;28;20032;-65
2021/04/24 06:00:19;;;;;;;17.58;7.80;;;4.50;62.00;;;;;;5052621;28;20059;-65
2021/04/24 06:02:47;;;;;;;16.38;7.50;;;4.60;62.20;;;;;;5046420;28;20036;-64
2021/04/24 06:05:15;;;;;;;18.75;8.50;;;4.70;62.00;;;;;;5063180;28;20586;-65
2021/04/24 06:07:46;;;;;;;15.35;7.93;;;4.80;61.80;;;;;;5059728;28;20404;-64
2021/04/24 06:10:17;;;;;;;19.38;7.72;;;4.90;61.60;;;;;;5053028;28;20033;-64
2021/04/24 06:12:47;;;;;;;13.65;7.30;;;5.00;61.30;;;;;;5049750;28;20063;-63
2021/04/24 06:15:19;;;;;;;15.27;7.80;;;5.10;61.10;;;;;;5050696;28;20040;-65
2021/04/24 06:17:47;;;;;;;18.05;7.50;;;5.30;61.00;;;;;;5051273;28;20551;-64
2021/04/24 06:20:16;;;;;;;15.93;7.38;;;5.40;60.90;;;;;;5052553;28;20505;-64
2021/04/24 06:22:41;;;;;;;13.48;7.70;;;5.50;60.60;;;;;;5051945;28;20044;-63
2021/04/24 06:25:14;;;;;;;13.95;7.85;;;5.70;60.30;;;;;;5052992;28;20103;-63
2021/04/24 06:27:44;;;;;;;17.05;7.78;;;5.80;60.70;;;;;;5050347;28;20072;-63
2021/04/24 06:30:17;;;;;;;15.23;7.75;;;5.90;60.40;;;;;;5054115;28;20032;-64
2021/04/24 06:32:45;;;;;;;21.08;8.55;;;6.00;60.00;;;;;;5052816;28;20123;-64
2021/04/24 06:35:14;;;;;;;15.23;8.00;;;6.10;59.70;;;;;;5054999;28;20044;-65
2021/04/24 06:37:41;;;;;;;15.40;6.47;;;6.30;59.70;;;;;;5056036;28;20036;-63
2021/04/24 06:40:11;;;;;;;14.82;7.25;;;6.40;59.50;;;;;;5038344;28;20061;-63
2021/04/24 06:42:40;;;;;;;16.42;8.00;;;6.50;59.30;;;;;;5042434;28;20047;-64
2021/04/24 06:45:13;;;;;;;14.02;7.45;;;6.60;59.20;;;;;;5045347;28;20068;-63
2021/04/24 06:47:41;;;;;;;13.85;6.85;;;6.70;59.20;;;;;;5043559;28;20386;-63
2021/04/24 06:50:12;;;;;;;14.43;7.22;;;6.90;59.00;;;;;;5044351;28;20071;-62
2021/04/24 06:52:40;;;;;;;14.52;6.68;;;7.00;58.70;;;;;;5038555;28;21116;-64
2021/04/24 06:55:09;;;;;;;13.07;6.50;;;7.10;58.70;;;;;;5046123;28;20501;-63
2021/04/24 06:57:34;;;;;;;14.90;7.20;;;7.20;58.50;;;;;;5044474;28;20132;-63
2021/04/24 07:00:04;;;;;;;14.93;6.70;;;7.30;58.30;;;;;;5047215;28;20040;-62
2021/04/24 07:02:37;;;;;;;13.18;6.88;;;7.50;58.20;;;;;;5041132;28;20032;-63
2021/04/24 07:05:06;;;;;;;16.17;6.72;;;7.60;58.10;;;;;;5047690;28;20029;-63
2021/04/24 07:07:39;;;;;;;14.20;6.93;;;7.70;57.90;;;;;;5051344;28;20061;-62
2021/04/24 07:10:08;;;;;;;10.75;6.03;;;7.80;57.80;;;;;;5045437;28;20044;-60
2021/04/24 07:12:36;;;;;;;21.25;6.13;;;8.00;57.80;;;;;;5041398;28;20619;-62
2021/04/24 07:15:03;;;;;;;19.42;6.13;;;8.10;57.50;;;;;;5049948;28;20047;-61
2021/04/24 07:17:34;;;;;;;14.13;6.60;;;8.20;57.30;;;;;;5063984;28;20044;-61
2021/04/24 07:20:03;;;;;;;13.35;6.40;;;8.30;57.00;;;;;;5054911;28;20059;-63
2021/04/24 07:22:31;;;;;;;15.80;6.28;;;8.50;57.00;;;;;;5052271;28;20032;-63
2021/04/24 07:24:59;;;;;;;14.35;6.28;;;8.60;56.80;;;;;;5042499;28;20049;-64
2021/04/24 07:27:27;;;;;;;11.30;5.88;;;8.70;56.60;;;;;;5045179;28;20036;-62
2021/04/24 07:29:55;;;;;;;16.90;6.60;;;8.90;56.30;;;;;;5042855;28;20120;-63
2021/04/24 07:32:21;;;;;;;19.00;6.68;;;9.00;56.20;;;;;;5044193;28;20033;-62
2021/04/24 07:34:49;;;;;;;13.68;6.53;;;9.10;56.00;;;;;;5044141;28;20044;-62
2021/04/24 07:37:15;;;;;;;18.27;6.18;;;9.20;55.70;;;;;;5045877;28;20635;-63
2021/04/24 07:39:43;;;;;;;12.73;6.05;;;9.30;55.50;;;;;;5046262;28;20029;-62
2021/04/24 07:42:13;;;;;;;14.68;6.93;;;9.40;55.30;;;;;;5045508;28;20117;-64
2021/04/24 07:44:39;;;;;;;15.00;7.03;;;9.60;55.20;;;;;;5045460;28;20166;-61
2021/04/24 07:47:09;;;;;;;14.30;6.88;;;9.70;55.20;;;;;;5042992;28;20417;-62
2021/04/24 07:49:39;;;;;;;15.30;6.85;;;9.80;55.20;;;;;;5046653;28;20107;-62
2021/04/24 07:52:06;;;;;;;11.57;6.40;;;9.90;54.60;;;;;;5045911;28;20043;-64
2021/04/24 07:54:35;;;;;;;14.50;7.22;;;10.00;54.70;;;;;;5041888;28;22355;-63
2021/04/24 07:57:03;;;;;;;13.55;7.07;;;10.10;54.70;;;;;;5054502;28;20401;-63
2021/04/24 07:59:31;;;;;;;14.43;6.68;;;10.20;54.50;;;;;;5061804;28;20442;-64
2021/04/24 08:02:01;;;;;;;15.43;6.78;;;10.30;54.30;;;;;;5060997;28;20025;-61
2021/04/24 08:04:29;;;;;;;10.90;6.15;;;10.40;54.00;;;;;;5059909;28;20028;-62
2021/04/24 08:06:55;;;;;;;11.68;6.35;;;10.60;54.00;;;;;;5062452;28;20069;-63
2021/04/24 08:09:20;;;;;;;9.52;6.40;;;10.60;53.80;;;;;;5060638;28;20524;-63
2021/04/24 08:11:49;;;;;;;14.95;6.50;;;10.70;53.70;;;;;;5056638;28;22283;-63
2021/04/24 08:14:19;;;;;;;11.30;6.53;;;10.80;53.50;;;;;;5062664;28;20577;-63
2021/04/24 08:16:45;;;;;;;11.20;6.38;;;10.90;54.00;;;;;;5061440;28;20044;-63
2021/04/24 08:19:13;;;;;;;13.73;7.07;;;11.00;53.20;;;;;;5058182;28;20033;-60
2021/04/24 08:21:43;;;;;;;11.07;6.57;;;11.10;53.30;;;;;;5059351;28;20040;-62
2021/04/24 08:24:12;;;;;;;12.10;6.38;;;11.30;53.20;;;;;;5061723;28;20029;-63
2021/04/24 08:26:40;;;;;;;9.73;6.10;;;11.40;53.10;;;;;;5062656;28;20021;-63
2021/04/24 08:29:07;;;;;;;12.32;6.63;;;11.50;52.90;;;;;;5060089;28;20496;-62
2021/04/24 08:31:40;;;;;;;16.02;6.90;;;11.60;52.50;;;;;;5062971;28;20036;-61
2021/04/24 08:34:08;;;;;;;13.32;6.57;;;11.70;52.20;;;;;;5061399;28;20632;-60
2021/04/24 08:36:37;;;;;;;14.05;6.20;;;11.90;52.20;;;;;;5061896;28;20039;-62
2021/04/24 08:39:10;;;;;;;14.63;6.40;;;12.00;52.00;;;;;;5059972;28;20041;-61
2021/04/24 08:41:43;;;;;;;12.05;6.32;;;12.10;51.80;;;;;;5059860;28;20029;-62
2021/04/24 08:44:08;;;;;;;10.02;6.25;;;12.20;52.40;;;;;;5060568;28;20033;-60
2021/04/24 08:46:36;;;;;;;17.95;6.30;;;12.40;51.70;;;;;;5063176;28;20044;-62
2021/04/24 08:49:04;;;;;;;31.30;7.50;;;12.50;51.50;;;;;;5059078;28;20040;-62
2021/04/24 08:51:35;;;;;;;9.85;6.63;;;12.60;51.40;;;;;;5055550;28;20060;-61
2021/04/24 08:54:02;;;;;;;15.48;6.68;;;12.80;51.20;;;;;;5060001;28;20033;-62
2021/04/24 08:56:28;;;;;;;14.32;6.38;;;12.90;51.00;;;;;;5060763;28;20036;-61
2021/04/24 08:58:57;;;;;;;10.77;6.50;;;13.00;50.80;;;;;;5058872;28;20108;-61
2021/04/24 09:01:28;;;;;;;22.70;7.35;;;13.10;50.00;;;;;;5063177;28;20048;-62
2021/04/24 09:03:54;;;;;;;114.60;9.63;;;13.20;50.30;;;;;;5056632;28;20025;-63
2021/04/24 09:06:24;;;;;;;132.20;11.02;;;13.30;50.90;;;;;;5064501;28;20032;-61
2021/04/24 09:08:59;;;;;;;17.67;7.22;;;13.40;50.00;;;;;;5062565;28;20501;-62
2021/04/24 09:11:26;;;;;;;12.02;6.13;;;13.50;49.20;;;;;;5059422;28;20134;-62
2021/04/24 09:14:03;;;;;;;13.27;6.53;;;13.60;49.60;;;;;;5054242;28;20032;-61
2021/04/24 09:16:29;;;;;;;10.93;6.22;;;13.70;49.30;;;;;;5059444;28;20029;-62
2021/04/24 09:18:55;;;;;;;11.20;6.30;;;13.80;49.30;;;;;;5057450;28;20033;-63
2021/04/24 09:21:28;;;;;;;11.18;5.97;;;13.90;48.90;;;;;;5061191;28;20067;-63
2021/04/24 09:23:57;;;;;;;11.75;6.20;;;14.10;48.30;;;;;;5060889;28;20054;-62
2021/04/24 09:26:28;;;;;;;13.18;6.45;;;14.20;48.10;;;;;;5061216;28;20107;-62
2021/04/24 09:29:03;;;;;;;10.02;5.75;;;14.30;47.30;;;;;;5062577;28;20025;-62
2021/04/24 09:31:31;;;;;;;9.93;5.80;;;14.50;46.90;;;;;;5060686;28;20028;-62
2021/04/24 09:34:02;;;;;;;8.85;5.55;;;14.60;47.00;;;;;;5060413;28;20036;-63
2021/04/24 09:36:40;;;;;;;11.52;5.95;;;14.70;46.40;;;;;;5062739;28;20094;-63
2021/04/24 09:39:11;;;;;;;7.32;5.43;;;14.80;45.30;;;;;;5063677;28;20029;-63
2021/04/24 09:41:43;;;;;;;9.18;5.97;;;14.90;45.20;;;;;;5066369;28;20017;-63
2021/04/24 09:44:12;;;;;;;13.25;5.80;;;15.10;45.60;;;;;;5058021;28;20454;-63
2021/04/24 09:46:58;;;;;;;10.63;5.57;;;15.20;44.80;;;;;;5065825;28;20063;-63
2021/04/24 09:49:33;;;;;;;8.63;5.00;;;15.30;43.70;;;;;;5067372;28;20028;-63
2021/04/24 09:51:59;;;;;;;10.60;5.53;;;15.50;44.10;;;;;;5064205;28;20016;-62
2021/04/24 09:54:40;;;;;;;9.95;5.75;;;15.60;44.50;;;;;;5062895;28;20033;-62
2021/04/24 09:57:11;;;;;;;9.40;5.82;;;15.80;43.40;;;;;;5064991;28;20375;-64
2021/04/24 09:59:56;;;;;;;9.10;5.38;;;15.90;43.00;;;;;;5062504;28;20025;-63
2021/04/24 10:02:40;;;;;;;9.10;5.40;;;16.10;42.60;;;;;;5062745;28;20111;-63
2021/04/24 10:05:15;;;;;;;10.15;5.32;;;16.20;42.40;;;;;;5063746;28;20126;-62
2021/04/24 10:07:46;;;;;;;9.00;5.05;;;16.40;42.50;;;;;;5063929;28;20056;-62
2021/04/24 10:10:14;;;;;;;9.10;5.30;;;16.50;42.30;;;;;;5066175;28;20116;-62
2021/04/24 10:13:05;;;;;;;7.10;4.85;;;16.60;42.00;;;;;;5064570;28;20030;-63
2021/04/24 10:15:39;;;;;;;9.73;4.90;;;16.70;40.40;;;;;;5065796;28;20036;-63
2021/04/24 10:18:12;;;;;;;7.32;4.90;;;16.80;40.50;;;;;;5068334;28;20573;-62
2021/04/24 10:20:41;;;;;;;10.80;5.30;;;16.90;39.50;;;;;;5061275;28;20037;-63
2021/04/24 10:23:13;;;;;;;6.85;5.00;;;17.00;38.90;;;;;;5065869;28;20094;-63
2021/04/24 10:25:41;;;;;;;7.47;5.07;;;17.00;37.40;;;;;;5068426;28;20068;-63
2021/04/24 10:28:09;;;;;;;36.83;6.03;;;17.00;38.10;;;;;;5066494;28;20417;-62
2021/04/24 10:30:35;;;;;;;11.25;4.85;;;17.10;38.90;;;;;;5068508;28;20566;-63
2021/04/24 10:33:03;;;;;;;8.20;5.07;;;17.10;39.80;;;;;;5065720;28;20468;-63
2021/04/24 10:35:31;;;;;;;8.02;5.40;;;17.20;39.20;;;;;;5067499;28;20033;-63
2021/04/24 10:38:02;;;;;;;8.60;5.00;;;17.20;38.60;;;;;;5070080;28;20103;-63
2021/04/24 10:40:29;;;;;;;9.88;5.22;;;17.30;36.00;;;;;;5067114;28;20036;-63
2021/04/24 10:42:58;;;;;;;8.45;5.43;;;17.30;37.00;;;;;;5059670;28;20028;-63
2021/04/24 10:45:36;;;;;;;6.22;4.72;;;17.40;37.70;;;;;;5067109;28;20044;-63
2021/04/24 10:48:05;;;;;;;7.38;5.20;;;17.40;37.50;;;;;;5068137;28;20028;-64
2021/04/24 10:50:42;;;;;;;7.97;5.40;;;17.50;37.80;;;;;;5063411;28;20020;-63
2021/04/24 10:53:28;;;;;;;6.75;4.80;;;17.60;37.00;;;;;;5068584;28;20036;-64
2021/04/24 10:56:00;;;;;;;8.98;5.47;;;17.60;36.70;;;;;;5067245;28;20685;-63
2021/04/24 10:58:28;;;;;;;8.05;5.75;;;17.70;36.50;;;;;;5068077;28;20037;-63
2021/04/24 11:01:09;;;;;;;8.82;5.28;;;17.70;36.10;;;;;;5064803;28;20024;-64
2021/04/24 11:03:44;;;;;;;9.52;5.38;;;17.70;36.00;;;;;;5067346;28;20379;-63
2021/04/24 11:06:15;;;;;;;10.57;6.35;;;17.80;36.70;;;;;;5067558;28;20036;-63
2021/04/24 11:08:46;;;;;;;7.75;5.43;;;17.80;36.60;;;;;;5065432;28;20051;-63
2021/04/24 11:11:16;;;;;;;8.23;5.38;;;17.90;36.70;;;;;;5062459;28;20509;-64
2021/04/24 11:13:56;;;;;;;8.85;6.28;;;17.90;36.90;;;;;;5068031;28;20473;-59
2021/04/24 11:16:31;;;;;;;8.30;5.65;;;18.00;35.50;;;;;;5066748;28;20390;-61
2021/04/24 11:18:59;;;;;;;9.68;5.65;;;18.00;35.90;;;;;;5066760;28;20031;-61
2021/04/24 11:21:30;;;;;;;10.52;6.18;;;18.00;36.10;;;;;;5067476;28;20536;-62
2021/04/24 11:24:11;;;;;;;8.15;5.70;;;18.00;34.60;;;;;;5067803;28;20059;-63
2021/04/24 11:26:39;;;;;;;7.18;5.38;;;18.00;34.60;;;;;;5066543;28;20107;-64
2021/04/24 11:29:08;;;;;;;8.00;5.85;;;18.00;35.90;;;;;;5066959;28;20044;-61
2021/04/24 11:32:05;;;;;;;10.23;5.88;;;18.10;35.70;;;;;;5066693;28;20419;-63
2021/04/24 11:34:45;;;;;;;10.10;5.80;;;18.10;34.60;;;;;;5065382;28;20056;-64
2021/04/24 11:37:31;;;;;;;10.15;5.75;;;18.20;34.40;;;;;;5063933;28;20025;-63
2021/04/24 11:40:22;;;;;;;10.05;5.80;;;18.20;34.60;;;;;;5067229;28;20048;-65
2021/04/24 11:42:53;;;;;;;8.98;5.63;;;18.30;33.20;;;;;;5052008;28;20120;-63
2021/04/24 11:45:44;;;;;;;10.85;5.72;;;18.30;34.80;;;;;;5055780;28;20036;-63
2021/04/24 11:48:12;;;;;;;8.88;5.43;;;18.40;33.70;;;;;;5058473;28;20044;-62
2021/04/24 11:50:43;;;;;;;8.00;5.50;;;18.40;33.70;;;;;;5049554;28;20437;-63
2021/04/24 11:53:10;;;;;;;7.72;5.10;;;18.40;34.10;;;;;;5057190;28;20028;-60
2021/04/24 11:55:38;;;;;;;8.13;5.40;;;18.50;34.80;;;;;;5054969;28;20044;-62
2021/04/24 11:58:16;;;;;;;7.55;5.13;;;18.50;34.30;;;;;;5050774;28;20120;-64
2021/04/24 12:00:44;;;;;;;7.68;5.63;;;18.60;33.50;;;;;;5059157;28;20032;-65
2021/04/24 12:03:17;;;;;;;8.50;5.50;;;18.60;34.10;;;;;;5057669;28;20045;-63
2021/04/24 12:05:50;;;;;;;9.70;5.15;;;18.70;33.40;;;;;;5063055;28;20584;-63
2021/04/24 12:08:26;;;;;;;9.82;5.75;;;18.80;33.80;;;;;;5057269;28;20032;-64
2021/04/24 12:10:55;;;;;;;6.95;5.43;;;18.80;32.80;;;;;;5052372;28;20657;-64
2021/04/24 12:13:23;;;;;;;9.57;5.13;;;18.90;32.20;;;;;;5060270;28;20444;-65
2021/04/24 12:15:51;;;;;;;6.85;5.50;;;18.90;32.00;;;;;;5062179;28;20039;-63
2021/04/24 12:18:29;;;;;;;11.13;5.38;;;18.90;31.60;;;;;;5064698;28;20048;-64
2021/04/24 12:20:57;;;;;;;6.70;4.72;;;18.90;31.50;;;;;;5065953;28;20036;-61
2021/04/24 12:23:25;;;;;;;8.57;5.30;;;18.90;32.20;;;;;;5057610;28;20037;-63
2021/04/24 12:25:51;;;;;;;9.73;5.45;;;18.90;32.50;;;;;;5056166;28;20052;-64
2021/04/24 12:28:22;;;;;;;10.57;5.85;;;18.90;31.90;;;;;;5062699;28;20066;-64
2021/04/24 12:30:49;;;;;;;9.95;5.28;;;19.00;30.60;;;;;;5057933;28;20044;-64
2021/04/24 12:33:18;;;;;;;6.90;5.40;;;19.00;31.10;;;;;;5056804;28;20043;-64
2021/04/24 12:36:05;;;;;;;8.52;5.00;;;19.00;31.50;;;;;;5054244;28;20094;-65
2021/04/24 12:38:32;;;;;;;11.23;6.57;;;19.00;31.00;;;;;;5053123;28;20032;-64
2021/04/24 12:41:03;;;;;;;12.70;6.28;;;19.00;30.20;;;;;;5052902;28;20044;-63
2021/04/24 12:43:37;;;;;;;7.63;5.80;;;19.00;30.00;;;;;;5053281;28;20120;-63
2021/04/24 12:46:11;;;;;;;6.80;5.05;;;19.00;30.00;;;;;;5052806;28;20032;-64
2021/04/24 12:48:44;;;;;;;7.57;5.90;;;19.00;29.80;;;;;;5053642;28;20033;-64
2021/04/24 12:51:21;;;;;;;7.93;5.40;;;19.00;29.70;;;;;;5054337;28;20291;-63
2021/04/24 12:53:53;;;;;;;7.68;5.32;;;19.00;30.00;;;;;;5063576;28;20029;-63
2021/04/24 12:56:26;;;;;;;8.38;5.70;;;19.10;30.60;;;;;;5065848;28;20037;-64
2021/04/24 12:58:57;;;;;;;6.30;5.03;;;19.10;30.30;;;;;;5050735;28;20033;-64
2021/04/24 13:01:24;;;;;;;7.93;5.55;;;19.10;31.00;;;;;;5057486;28;20041;-63